sensor_id;sensor_type;location;lat;lon;timestamp;pressure;altitude;pressure_sealevel;temperature;humidity
9525;BME280;15940;48.734;9.112;2023-04-15T00:02:16;95594.59;;;4.42;75.08
9525;BME280;15940;48.734;9.112;2023-04-15T00:04:44;95592.25;;;4.29;75.20
9525;BME280;15940;48.734;9.112;2023-04-15T00:07:11;95598.19;;;4.18;74.66
9525;BME280;15940;48.734;9.112;2023-04-15T00:09:40;95592.72;;;4.27;77.04
9525;BME280;15940;48.734;9.112;2023-04-15T00:12:07;95594.38;;;4.45;75.79
9525;BME280;15940;48.734;9.112;2023-04-15T00:14:34;95599.41;;;4.58;75.87
9525;BME280;15940;48.734;9.112;2023-04-15T00:17:03;95597.00;;;4.40;74.71
9525;BME280;15940;48.734;9.112;2023-04-15T00:19:30;95596.53;;;4.41;75.42
9525;BME280;15940;48.734;9.112;2023-04-15T00:21:57;95596.13;;;4.48;76.62
9525;BME280;15940;48.734;9.112;2023-04-15T00:24:24;95596.13;;;4.48;75.73
9525;BME280;15940;48.734;9.112;2023-04-15T00:26:52;95591.97;;;4.47;75.79
9525;BME280;15940;48.734;9.112;2023-04-15T00:29:19;95595.31;;;4.63;76.11
9525;BME280;15940;48.734;9.112;2023-04-15T00:31:46;95592.63;;;4.63;76.02
9525;BME280;15940;48.734;9.112;2023-04-15T00:34:13;95591.16;;;4.62;75.95
9525;BME280;15940;48.734;9.112;2023-04-15T00:36:40;95586.00;;;4.58;75.15
9525;BME280;15940;48.734;9.112;2023-04-15T00:39:07;95586.78;;;4.64;76.87
9525;BME280;15940;48.734;9.112;2023-04-15T00:41:34;95590.16;;;4.79;75.86
9525;BME280;15940;48.734;9.112;2023-04-15T00:44:05;95585.25;;;4.78;75.69
9525;BME280;15940;48.734;9.112;2023-04-15T00:46:35;95584.94;;;4.70;75.28
9525;BME280;15940;48.734;9.112;2023-04-15T00:49:04;95586.88;;;4.70;76.56
9525;BME280;15940;48.734;9.112;2023-04-15T00:51:31;95579.78;;;4.67;76.12
9525;BME280;15940;48.734;9.112;2023-04-15T00:54:01;95585.78;;;4.82;75.18
9525;BME280;15940;48.734;9.112;2023-04-15T00:56:29;95590.63;;;4.78;75.04
9525;BME280;15940;48.734;9.112;2023-04-15T00:58:57;95591.09;;;4.76;74.96
9525;BME280;15940;48.734;9.112;2023-04-15T01:01:26;95586.06;;;4.64;74.28
9525;BME280;15940;48.734;9.112;2023-04-15T01:03:55;95591.38;;;4.58;74.49
9525;BME280;15940;48.734;9.112;2023-04-15T01:06:23;95588.44;;;4.56;75.97
9525;BME280;15940;48.734;9.112;2023-04-15T01:08:50;95595.44;;;4.53;74.64
9525;BME280;15940;48.734;9.112;2023-04-15T01:11:17;95586.94;;;4.35;75.28
9525;BME280;15940;48.734;9.112;2023-04-15T01:13:45;95577.53;;;4.24;74.96
9525;BME280;15940;48.734;9.112;2023-04-15T01:16:13;95584.00;;;4.33;77.47
9525;BME280;15940;48.734;9.112;2023-04-15T01:18:41;95586.91;;;4.14;75.93
9525;BME280;15940;48.734;9.112;2023-04-15T01:21:08;95593.31;;;4.02;76.10
9525;BME280;15940;48.734;9.112;2023-04-15T01:23:37;95594.81;;;3.88;77.07
9525;BME280;15940;48.734;9.112;2023-04-15T01:26:06;95588.28;;;3.89;76.76
9525;BME280;15940;48.734;9.112;2023-04-15T01:28:33;95579.72;;;4.06;77.62
9525;BME280;15940;48.734;9.112;2023-04-15T01:31:08;95584.09;;;4.03;76.87
9525;BME280;15940;48.734;9.112;2023-04-15T01:33:36;95579.84;;;3.96;78.01
9525;BME280;15940;48.734;9.112;2023-04-15T01:36:05;95576.53;;;3.87;78.18
9525;BME280;15940;48.734;9.112;2023-04-15T01:38:33;95581.63;;;3.99;79.37
9525;BME280;15940;48.734;9.112;2023-04-15T01:41:00;95580.63;;;4.17;77.94
9525;BME280;15940;48.734;9.112;2023-04-15T01:43:30;95577.19;;;4.17;77.68
9525;BME280;15940;48.734;9.112;2023-04-15T01:45:57;95581.16;;;4.21;77.64
9525;BME280;15940;48.734;9.112;2023-04-15T01:48:24;95575.88;;;4.27;76.20
9525;BME280;15940;48.734;9.112;2023-04-15T01:50:53;95574.72;;;4.13;75.09
9525;BME280;15940;48.734;9.112;2023-04-15T01:53:22;95581.00;;;3.90;76.00
9525;BME280;15940;48.734;9.112;2023-04-15T01:55:49;95582.78;;;3.63;76.56
9525;BME280;15940;48.734;9.112;2023-04-15T01:58:16;95580.69;;;3.88;78.65
9525;BME280;15940;48.734;9.112;2023-04-15T02:00:45;95582.56;;;3.82;77.11
9525;BME280;15940;48.734;9.112;2023-04-15T02:03:11;95579.06;;;3.76;77.33
9525;BME280;15940;48.734;9.112;2023-04-15T02:05:38;95571.59;;;3.65;78.14
9525;BME280;15940;48.734;9.112;2023-04-15T02:08:05;95573.53;;;3.64;79.14
9525;BME280;15940;48.734;9.112;2023-04-15T02:10:32;95573.72;;;3.76;78.59
9525;BME280;15940;48.734;9.112;2023-04-15T02:12:59;95569.34;;;3.78;79.07
9525;BME280;15940;48.734;9.112;2023-04-15T02:15:26;95577.28;;;3.87;78.05
9525;BME280;15940;48.734;9.112;2023-04-15T02:17:55;95576.91;;;3.94;77.80
9525;BME280;15940;48.734;9.112;2023-04-15T02:20:22;95581.56;;;4.14;77.41
9525;BME280;15940;48.734;9.112;2023-04-15T02:22:49;95575.72;;;4.16;76.79
9525;BME280;15940;48.734;9.112;2023-04-15T02:25:17;95576.56;;;4.07;75.89
9525;BME280;15940;48.734;9.112;2023-04-15T02:27:44;95574.94;;;4.10;77.10
9525;BME280;15940;48.734;9.112;2023-04-15T02:30:11;95573.63;;;4.05;76.58
9525;BME280;15940;48.734;9.112;2023-04-15T02:32:39;95569.00;;;4.06;76.43
9525;BME280;15940;48.734;9.112;2023-04-15T02:35:10;95566.28;;;4.00;77.40
9525;BME280;15940;48.734;9.112;2023-04-15T02:37:37;95570.59;;;3.97;76.69
9525;BME280;15940;48.734;9.112;2023-04-15T02:40:08;95563.78;;;3.96;77.16
9525;BME280;15940;48.734;9.112;2023-04-15T02:42:37;95567.38;;;4.08;77.04
9525;BME280;15940;48.734;9.112;2023-04-15T02:45:06;95563.75;;;4.11;76.95
9525;BME280;15940;48.734;9.112;2023-04-15T02:47:33;95559.59;;;4.10;76.13
9525;BME280;15940;48.734;9.112;2023-04-15T02:50:03;95563.84;;;4.02;75.93
9525;BME280;15940;48.734;9.112;2023-04-15T02:52:31;95566.00;;;3.98;77.61
9525;BME280;15940;48.734;9.112;2023-04-15T02:54:58;95562.31;;;4.16;76.62
9525;BME280;15940;48.734;9.112;2023-04-15T02:57:27;95564.97;;;4.30;76.08
9525;BME280;15940;48.734;9.112;2023-04-15T02:59:54;95561.81;;;4.32;75.39
9525;BME280;15940;48.734;9.112;2023-04-15T03:02:21;95550.13;;;4.35;75.28
9525;BME280;15940;48.734;9.112;2023-04-15T03:04:48;95555.38;;;4.44;75.01
9525;BME280;15940;48.734;9.112;2023-04-15T03:07:16;95552.91;;;4.41;74.92
9525;BME280;15940;48.734;9.112;2023-04-15T03:09:45;95553.63;;;4.41;74.34
9525;BME280;15940;48.734;9.112;2023-04-15T03:12:12;95557.53;;;4.40;74.28
9525;BME280;15940;48.734;9.112;2023-04-15T03:14:39;95563.97;;;4.48;75.37
9525;BME280;15940;48.734;9.112;2023-04-15T03:17:06;95557.88;;;4.48;74.23
9525;BME280;15940;48.734;9.112;2023-04-15T03:19:33;95561.03;;;4.46;74.26
9525;BME280;15940;48.734;9.112;2023-04-15T03:22:00;95560.84;;;4.35;73.31
9525;BME280;15940;48.734;9.112;2023-04-15T03:24:27;95558.00;;;4.18;73.60
9525;BME280;15940;48.734;9.112;2023-04-15T03:26:56;95552.06;;;4.14;74.28
9525;BME280;15940;48.734;9.112;2023-04-15T03:29:23;95556.34;;;4.06;74.15
9525;BME280;15940;48.734;9.112;2023-04-15T03:31:51;95554.97;;;4.11;75.33
9525;BME280;15940;48.734;9.112;2023-04-15T03:34:18;95556.81;;;4.05;74.46
9525;BME280;15940;48.734;9.112;2023-04-15T03:36:45;95560.66;;;3.98;74.76
9525;BME280;15940;48.734;9.112;2023-04-15T03:39:12;95559.25;;;4.03;75.47
9525;BME280;15940;48.734;9.112;2023-04-15T03:41:39;95555.50;;;4.15;74.50
9525;BME280;15940;48.734;9.112;2023-04-15T03:44:07;95552.91;;;4.20;74.89
9525;BME280;15940;48.734;9.112;2023-04-15T03:46:34;95556.84;;;4.25;74.61
9525;BME280;15940;48.734;9.112;2023-04-15T03:49:01;95550.00;;;4.24;74.71
9525;BME280;15940;48.734;9.112;2023-04-15T03:51:28;95552.94;;;4.26;74.31
9525;BME280;15940;48.734;9.112;2023-04-15T03:53:55;95557.53;;;4.20;74.18
9525;BME280;15940;48.734;9.112;2023-04-15T03:56:23;95552.03;;;4.09;74.79
9525;BME280;15940;48.734;9.112;2023-04-15T03:58:50;95557.91;;;4.13;74.76
9525;BME280;15940;48.734;9.112;2023-04-15T04:01:18;95554.84;;;4.20;74.28
9525;BME280;15940;48.734;9.112;2023-04-15T04:03:45;95558.31;;;4.26;74.24
9525;BME280;15940;48.734;9.112;2023-04-15T04:06:12;95553.63;;;4.21;73.29
9525;BME280;15940;48.734;9.112;2023-04-15T04:08:39;95556.41;;;4.26;73.61
9525;BME280;15940;48.734;9.112;2023-04-15T04:11:06;95551.44;;;4.40;73.77
9525;BME280;15940;48.734;9.112;2023-04-15T04:13:33;95547.53;;;4.41;73.02
9525;BME280;15940;48.734;9.112;2023-04-15T04:16:00;95557.72;;;4.37;73.23
9525;BME280;15940;48.734;9.112;2023-04-15T04:18:28;95567.16;;;4.32;73.68
9525;BME280;15940;48.734;9.112;2023-04-15T04:20:55;95562.00;;;4.28;73.17
9525;BME280;15940;48.734;9.112;2023-04-15T04:23:22;95563.41;;;4.24;73.01
9525;BME280;15940;48.734;9.112;2023-04-15T04:25:49;95569.25;;;4.22;73.17
9525;BME280;15940;48.734;9.112;2023-04-15T04:28:17;95568.63;;;4.13;74.02
9525;BME280;15940;48.734;9.112;2023-04-15T04:30:44;95560.31;;;4.11;74.38
9525;BME280;15940;48.734;9.112;2023-04-15T04:33:11;95561.66;;;4.21;73.56
9525;BME280;15940;48.734;9.112;2023-04-15T04:35:39;95566.28;;;4.20;73.92
9525;BME280;15940;48.734;9.112;2023-04-15T04:38:06;95570.72;;;4.23;73.58
9525;BME280;15940;48.734;9.112;2023-04-15T04:40:33;95570.97;;;4.25;73.17
9525;BME280;15940;48.734;9.112;2023-04-15T04:43:00;95572.00;;;4.28;72.93
9525;BME280;15940;48.734;9.112;2023-04-15T04:45:27;95571.44;;;4.24;73.18
9525;BME280;15940;48.734;9.112;2023-04-15T04:47:54;95572.53;;;4.32;73.52
9525;BME280;15940;48.734;9.112;2023-04-15T04:50:21;95579.44;;;4.39;72.96
9525;BME280;15940;48.734;9.112;2023-04-15T04:52:49;95576.16;;;4.29;73.04
9525;BME280;15940;48.734;9.112;2023-04-15T04:55:17;95576.34;;;4.25;72.40
9525;BME280;15940;48.734;9.112;2023-04-15T04:57:44;95580.09;;;4.13;72.70
9525;BME280;15940;48.734;9.112;2023-04-15T05:00:12;95594.59;;;4.07;73.54
9525;BME280;15940;48.734;9.112;2023-04-15T05:02:39;95580.19;;;4.04;73.15
9525;BME280;15940;48.734;9.112;2023-04-15T05:05:09;95581.88;;;4.01;74.00
9525;BME280;15940;48.734;9.112;2023-04-15T05:07:36;95587.75;;;4.06;74.22
9525;BME280;15940;48.734;9.112;2023-04-15T05:10:09;95586.91;;;4.14;73.55
9525;BME280;15940;48.734;9.112;2023-04-15T05:12:36;95580.44;;;4.21;72.48
9525;BME280;15940;48.734;9.112;2023-04-15T05:15:05;95583.34;;;4.03;74.23
9525;BME280;15940;48.734;9.112;2023-04-15T05:17:32;95588.25;;;4.04;74.49
9525;BME280;15940;48.734;9.112;2023-04-15T05:19:59;95591.59;;;3.99;74.52
9525;BME280;15940;48.734;9.112;2023-04-15T05:22:27;95592.50;;;3.96;73.86
9525;BME280;15940;48.734;9.112;2023-04-15T05:24:53;95594.72;;;3.97;75.27
9525;BME280;15940;48.734;9.112;2023-04-15T05:27:22;95588.78;;;4.08;74.46
9525;BME280;15940;48.734;9.112;2023-04-15T05:29:49;95589.69;;;4.20;74.48
9525;BME280;15940;48.734;9.112;2023-04-15T05:32:16;95594.53;;;4.36;73.54
9525;BME280;15940;48.734;9.112;2023-04-15T05:34:43;95597.13;;;4.30;72.91
9525;BME280;15940;48.734;9.112;2023-04-15T05:37:10;95595.09;;;4.25;73.17
9525;BME280;15940;48.734;9.112;2023-04-15T05:39:37;95601.00;;;4.29;73.36
9525;BME280;15940;48.734;9.112;2023-04-15T05:42:04;95594.31;;;4.19;73.98
9525;BME280;15940;48.734;9.112;2023-04-15T05:44:32;95594.06;;;4.38;73.48
9525;BME280;15940;48.734;9.112;2023-04-15T05:47:00;95592.59;;;4.57;73.66
9525;BME280;15940;48.734;9.112;2023-04-15T05:49:28;95595.78;;;4.61;73.93
9525;BME280;15940;48.734;9.112;2023-04-15T05:51:55;95590.16;;;4.79;71.93
9525;BME280;15940;48.734;9.112;2023-04-15T05:54:22;95592.31;;;4.75;72.82
9525;BME280;15940;48.734;9.112;2023-04-15T05:56:49;95601.63;;;4.59;73.14
9525;BME280;15940;48.734;9.112;2023-04-15T05:59:16;95599.59;;;4.54;72.91
9525;BME280;15940;48.734;9.112;2023-04-15T06:01:44;95595.31;;;4.83;73.42
9525;BME280;15940;48.734;9.112;2023-04-15T06:04:11;95600.44;;;5.07;72.56
9525;BME280;15940;48.734;9.112;2023-04-15T06:06:38;95605.50;;;5.25;72.05
9525;BME280;15940;48.734;9.112;2023-04-15T06:09:05;95594.47;;;5.49;71.65
9525;BME280;15940;48.734;9.112;2023-04-15T06:11:32;95595.09;;;5.64;70.82
9525;BME280;15940;48.734;9.112;2023-04-15T06:13:59;95592.06;;;5.83;70.61
9525;BME280;15940;48.734;9.112;2023-04-15T06:16:26;95588.25;;;5.95;70.51
9525;BME280;15940;48.734;9.112;2023-04-15T06:18:54;95593.50;;;6.15;70.18
9525;BME280;15940;48.734;9.112;2023-04-15T06:21:21;95591.91;;;6.35;69.37
9525;BME280;15940;48.734;9.112;2023-04-15T06:23:48;95605.69;;;6.53;69.11
9525;BME280;15940;48.734;9.112;2023-04-15T06:26:15;95597.94;;;6.72;68.75
9525;BME280;15940;48.734;9.112;2023-04-15T06:28:42;95598.53;;;6.99;68.54
9525;BME280;15940;48.734;9.112;2023-04-15T06:31:09;95596.88;;;7.24;67.83
9525;BME280;15940;48.734;9.112;2023-04-15T06:33:36;95601.56;;;7.45;66.39
9525;BME280;15940;48.734;9.112;2023-04-15T06:36:06;95599.38;;;7.66;65.01
9525;BME280;15940;48.734;9.112;2023-04-15T06:38:33;95596.94;;;7.96;62.50
9525;BME280;15940;48.734;9.112;2023-04-15T06:41:00;95601.25;;;8.33;63.63
9525;BME280;15940;48.734;9.112;2023-04-15T06:43:27;95606.88;;;8.52;61.45
9525;BME280;15940;48.734;9.112;2023-04-15T06:45:54;95610.22;;;8.80;62.02
9525;BME280;15940;48.734;9.112;2023-04-15T06:48:21;95606.19;;;9.04;60.29
9525;BME280;15940;48.734;9.112;2023-04-15T06:50:48;95618.91;;;9.20;59.24
9525;BME280;15940;48.734;9.112;2023-04-15T06:53:16;95616.38;;;9.28;57.76
9525;BME280;15940;48.734;9.112;2023-04-15T06:55:44;95606.19;;;9.45;58.17
9525;BME280;15940;48.734;9.112;2023-04-15T06:58:11;95605.56;;;9.69;57.65
9525;BME280;15940;48.734;9.112;2023-04-15T07:00:38;95616.06;;;9.78;57.89
9525;BME280;15940;48.734;9.112;2023-04-15T07:03:05;95614.81;;;9.79;56.91
9525;BME280;15940;48.734;9.112;2023-04-15T07:05:34;95610.59;;;9.84;57.16
9525;BME280;15940;48.734;9.112;2023-04-15T07:08:01;95609.63;;;9.81;57.21
9525;BME280;15940;48.734;9.112;2023-04-15T07:10:30;95615.53;;;9.80;58.24
9525;BME280;15940;48.734;9.112;2023-04-15T07:12:57;95608.88;;;9.86;60.09
9525;BME280;15940;48.734;9.112;2023-04-15T07:15:24;95610.78;;;9.91;60.89
9525;BME280;15940;48.734;9.112;2023-04-15T07:17:51;95613.59;;;9.74;60.62
9525;BME280;15940;48.734;9.112;2023-04-15T07:20:18;95616.41;;;9.63;61.63
9525;BME280;15940;48.734;9.112;2023-04-15T07:22:45;95617.72;;;9.51;61.40
9525;BME280;15940;48.734;9.112;2023-04-15T07:25:11;95616.59;;;9.71;61.96
9525;BME280;15940;48.734;9.112;2023-04-15T07:27:40;95617.09;;;9.99;60.88
9525;BME280;15940;48.734;9.112;2023-04-15T07:30:08;95616.25;;;10.65;59.77
9525;BME280;15940;48.734;9.112;2023-04-15T07:32:35;95608.31;;;10.72;58.13
9525;BME280;15940;48.734;9.112;2023-04-15T07:35:02;95614.69;;;10.94;57.71
9525;BME280;15940;48.734;9.112;2023-04-15T07:37:30;95608.56;;;11.12;56.29
9525;BME280;15940;48.734;9.112;2023-04-15T07:39:57;95600.28;;;11.04;56.15
9525;BME280;15940;48.734;9.112;2023-04-15T07:42:24;95605.19;;;11.25;56.96
9525;BME280;15940;48.734;9.112;2023-04-15T07:44:52;95599.84;;;12.02;55.83
9525;BME280;15940;48.734;9.112;2023-04-15T07:47:19;95601.16;;;12.54;52.24
9525;BME280;15940;48.734;9.112;2023-04-15T07:49:46;95598.56;;;13.35;51.54
9525;BME280;15940;48.734;9.112;2023-04-15T07:52:13;95599.97;;;14.33;48.09
9525;BME280;15940;48.734;9.112;2023-04-15T07:54:41;95600.22;;;15.07;45.22
9525;BME280;15940;48.734;9.112;2023-04-15T07:57:08;95600.41;;;15.61;44.76
9525;BME280;15940;48.734;9.112;2023-04-15T07:59:35;95594.50;;;14.90;40.98
9525;BME280;15940;48.734;9.112;2023-04-15T08:02:03;95593.44;;;14.93;42.68
9525;BME280;15940;48.734;9.112;2023-04-15T08:04:30;95593.69;;;14.74;44.19
9525;BME280;15940;48.734;9.112;2023-04-15T08:06:58;95599.56;;;14.29;46.16
9525;BME280;15940;48.734;9.112;2023-04-15T08:09:25;95601.72;;;13.81;47.88
9525;BME280;15940;48.734;9.112;2023-04-15T08:11:52;95604.78;;;12.96;49.00
9525;BME280;15940;48.734;9.112;2023-04-15T08:14:19;95613.16;;;12.58;50.83
9525;BME280;15940;48.734;9.112;2023-04-15T08:16:46;95607.09;;;12.26;52.19
9525;BME280;15940;48.734;9.112;2023-04-15T08:19:15;95603.44;;;12.23;51.96
9525;BME280;15940;48.734;9.112;2023-04-15T08:21:42;95612.00;;;12.27;53.20
9525;BME280;15940;48.734;9.112;2023-04-15T08:24:08;95615.28;;;12.52;53.12
9525;BME280;15940;48.734;9.112;2023-04-15T08:26:36;95610.25;;;12.83;52.52
9525;BME280;15940;48.734;9.112;2023-04-15T08:29:03;95611.25;;;13.06;50.25
9525;BME280;15940;48.734;9.112;2023-04-15T08:31:29;95615.38;;;13.47;51.94
9525;BME280;15940;48.734;9.112;2023-04-15T08:33:56;95618.47;;;14.06;49.69
9525;BME280;15940;48.734;9.112;2023-04-15T08:36:25;95607.94;;;14.52;48.42
9525;BME280;15940;48.734;9.112;2023-04-15T08:38:53;95609.63;;;14.63;47.32
9525;BME280;15940;48.734;9.112;2023-04-15T08:41:22;95611.41;;;14.32;44.58
9525;BME280;15940;48.734;9.112;2023-04-15T08:43:57;95617.16;;;14.28;45.16
9525;BME280;15940;48.734;9.112;2023-04-15T08:46:27;95618.72;;;14.16;45.52
9525;BME280;15940;48.734;9.112;2023-04-15T08:48:56;95611.91;;;14.30;46.41
9525;BME280;15940;48.734;9.112;2023-04-15T08:51:25;95607.81;;;14.65;44.11
9525;BME280;15940;48.734;9.112;2023-04-15T08:53:53;95612.28;;;15.20;41.80
9525;BME280;15940;48.734;9.112;2023-04-15T08:56:24;95613.00;;;15.79;42.68
9525;BME280;15940;48.734;9.112;2023-04-15T08:58:51;95607.72;;;16.27;42.10
9525;BME280;15940;48.734;9.112;2023-04-15T09:01:18;95608.44;;;15.82;42.29
9525;BME280;15940;48.734;9.112;2023-04-15T09:03:48;95615.75;;;15.94;42.98
9525;BME280;15940;48.734;9.112;2023-04-15T09:06:16;95607.16;;;15.75;43.69
9525;BME280;15940;48.734;9.112;2023-04-15T09:08:44;95616.66;;;16.05;42.58
9525;BME280;15940;48.734;9.112;2023-04-15T09:11:12;95609.34;;;15.69;42.81
9525;BME280;15940;48.734;9.112;2023-04-15T09:13:39;95612.06;;;15.69;42.90
9525;BME280;15940;48.734;9.112;2023-04-15T09:16:06;95618.00;;;15.45;40.52
9525;BME280;15940;48.734;9.112;2023-04-15T09:18:36;95620.03;;;15.08;43.88
9525;BME280;15940;48.734;9.112;2023-04-15T09:21:08;95627.31;;;15.13;42.78
9525;BME280;15940;48.734;9.112;2023-04-15T09:23:37;95630.81;;;15.21;40.80
9525;BME280;15940;48.734;9.112;2023-04-15T09:26:07;95625.94;;;15.35;42.96
9525;BME280;15940;48.734;9.112;2023-04-15T09:28:41;95630.72;;;15.50;41.74
9525;BME280;15940;48.734;9.112;2023-04-15T09:33:28;95635.50;;;15.57;42.99
9525;BME280;15940;48.734;9.112;2023-04-15T09:35:58;95636.75;;;15.48;43.36
9525;BME280;15940;48.734;9.112;2023-04-15T09:38:25;95633.06;;;15.38;42.47
9525;BME280;15940;48.734;9.112;2023-04-15T09:40:52;95648.03;;;15.45;43.47
9525;BME280;15940;48.734;9.112;2023-04-15T09:43:19;95638.19;;;15.49;43.30
9525;BME280;15940;48.734;9.112;2023-04-15T09:45:48;95641.34;;;15.61;42.29
9525;BME280;15940;48.734;9.112;2023-04-15T09:48:18;95641.00;;;15.72;42.63
9525;BME280;15940;48.734;9.112;2023-04-15T09:50:48;95647.97;;;16.04;43.14
9525;BME280;15940;48.734;9.112;2023-04-15T09:53:17;95646.72;;;16.35;41.74
9525;BME280;15940;48.734;9.112;2023-04-15T09:55:46;95637.94;;;15.98;41.92
9525;BME280;15940;48.734;9.112;2023-04-15T09:58:19;95634.81;;;15.64;40.88
9525;BME280;15940;48.734;9.112;2023-04-15T10:00:48;95652.38;;;15.48;42.99
9525;BME280;15940;48.734;9.112;2023-04-15T10:03:19;95650.47;;;15.71;41.56
9525;BME280;15940;48.734;9.112;2023-04-15T10:05:50;95649.56;;;15.68;39.09
9525;BME280;15940;48.734;9.112;2023-04-15T10:08:19;95650.59;;;15.58;40.84
9525;BME280;15940;48.734;9.112;2023-04-15T10:10:48;95649.81;;;15.42;41.75
9525;BME280;15940;48.734;9.112;2023-04-15T10:13:18;95645.84;;;15.07;40.54
9525;BME280;15940;48.734;9.112;2023-04-15T10:15:49;95643.91;;;14.79;41.33
9525;BME280;15940;48.734;9.112;2023-04-15T10:18:19;95655.91;;;14.55;39.80
9525;BME280;15940;48.734;9.112;2023-04-15T10:20:49;95661.78;;;14.67;41.41
9525;BME280;15940;48.734;9.112;2023-04-15T10:23:17;95661.63;;;14.44;42.11
9525;BME280;15940;48.734;9.112;2023-04-15T10:25:45;95662.84;;;14.14;41.84
9525;BME280;15940;48.734;9.112;2023-04-15T10:28:15;95659.44;;;14.00;41.57
9525;BME280;15940;48.734;9.112;2023-04-15T10:30:42;95671.53;;;14.13;43.83
9525;BME280;15940;48.734;9.112;2023-04-15T10:33:10;95666.66;;;13.98;43.89
9525;BME280;15940;48.734;9.112;2023-04-15T10:35:38;95675.38;;;13.96;44.24
9525;BME280;15940;48.734;9.112;2023-04-15T10:38:35;95676.56;;;13.88;43.84
9525;BME280;15940;48.734;9.112;2023-04-15T10:41:18;95679.09;;;13.86;45.83
9525;BME280;15940;48.734;9.112;2023-04-15T10:43:48;95685.53;;;13.96;44.03
9525;BME280;15940;48.734;9.112;2023-04-15T10:46:22;95679.13;;;14.77;45.09
9525;BME280;15940;48.734;9.112;2023-04-15T10:48:51;95682.00;;;14.71;44.22
9525;BME280;15940;48.734;9.112;2023-04-15T10:51:30;95685.75;;;14.61;46.56
9525;BME280;15940;48.734;9.112;2023-04-15T10:53:59;95688.00;;;14.49;44.00
9525;BME280;15940;48.734;9.112;2023-04-15T10:56:28;95685.84;;;14.76;45.18
9525;BME280;15940;48.734;9.112;2023-04-15T10:58:58;95682.16;;;15.30;46.83
9525;BME280;15940;48.734;9.112;2023-04-15T11:01:52;95680.22;;;15.46;46.51
9525;BME280;15940;48.734;9.112;2023-04-15T11:04:53;95681.09;;;15.41;45.12
9525;BME280;15940;48.734;9.112;2023-04-15T11:07:40;95682.72;;;15.00;43.65
9525;BME280;15940;48.734;9.112;2023-04-15T11:10:52;95690.22;;;14.50;45.68
9525;BME280;15940;48.734;9.112;2023-04-15T11:13:26;95686.47;;;13.98;46.11
9525;BME280;15940;48.734;9.112;2023-04-15T11:15:58;95686.78;;;13.74;47.18
9525;BME280;15940;48.734;9.112;2023-04-15T11:18:32;95695.44;;;13.38;48.75
9525;BME280;15940;48.734;9.112;2023-04-15T11:21:02;95688.41;;;13.16;49.52
9525;BME280;15940;48.734;9.112;2023-04-15T11:23:35;95693.25;;;13.24;50.44
9525;BME280;15940;48.734;9.112;2023-04-15T11:26:05;95687.44;;;13.54;50.72
9525;BME280;15940;48.734;9.112;2023-04-15T11:28:34;95687.91;;;13.99;49.73
9525;BME280;15940;48.734;9.112;2023-04-15T11:31:07;95688.13;;;14.43;45.76
9525;BME280;15940;48.734;9.112;2023-04-15T11:33:35;95688.06;;;14.85;44.42
9525;BME280;15940;48.734;9.112;2023-04-15T11:36:03;95684.69;;;15.64;44.60
9525;BME280;15940;48.734;9.112;2023-04-15T11:38:30;95685.25;;;15.78;43.69
9525;BME280;15940;48.734;9.112;2023-04-15T11:43:22;95690.66;;;14.41;42.81
9525;BME280;15940;48.734;9.112;2023-04-15T11:45:52;95693.91;;;14.19;44.06
9525;BME280;15940;48.734;9.112;2023-04-15T11:48:21;95704.22;;;14.13;45.84
9525;BME280;15940;48.734;9.112;2023-04-15T11:50:53;95709.09;;;13.93;47.38
9525;BME280;15940;48.734;9.112;2023-04-15T11:53:20;95704.59;;;14.17;47.58
9525;BME280;15940;48.734;9.112;2023-04-15T11:55:50;95705.47;;;14.74;44.90
9525;BME280;15940;48.734;9.112;2023-04-15T11:58:19;95705.00;;;15.56;44.63
9525;BME280;15940;48.734;9.112;2023-04-15T12:00:50;95707.63;;;15.77;45.86
9525;BME280;15940;48.734;9.112;2023-04-15T12:03:22;95711.56;;;16.12;41.88
9525;BME280;15940;48.734;9.112;2023-04-15T12:06:07;95712.19;;;15.74;41.47
9525;BME280;15940;48.734;9.112;2023-04-15T12:08:56;95721.84;;;15.39;41.86
9525;BME280;15940;48.734;9.112;2023-04-15T12:11:33;95714.84;;;15.23;41.84
9525;BME280;15940;48.734;9.112;2023-04-15T12:16:21;95714.06;;;15.51;41.05
9525;BME280;15940;48.734;9.112;2023-04-15T12:18:51;95728.78;;;15.84;43.74
9525;BME280;15940;48.734;9.112;2023-04-15T12:21:21;95739.91;;;16.01;40.13
9525;BME280;15940;48.734;9.112;2023-04-15T12:23:48;95733.91;;;15.95;41.24
9525;BME280;15940;48.734;9.112;2023-04-15T12:26:16;95726.25;;;15.86;41.70
9525;BME280;15940;48.734;9.112;2023-04-15T12:28:43;95737.91;;;15.50;41.70
9525;BME280;15940;48.734;9.112;2023-04-15T12:31:11;95745.25;;;15.27;41.63
9525;BME280;15940;48.734;9.112;2023-04-15T12:33:41;95747.38;;;14.92;42.31
9525;BME280;15940;48.734;9.112;2023-04-15T12:36:08;95748.50;;;14.97;40.45
9525;BME280;15940;48.734;9.112;2023-04-15T12:38:35;95761.75;;;14.93;42.20
9525;BME280;15940;48.734;9.112;2023-04-15T12:41:02;95774.47;;;14.69;44.75
9525;BME280;15940;48.734;9.112;2023-04-15T12:43:29;95779.41;;;14.37;47.10
9525;BME280;15940;48.734;9.112;2023-04-15T12:48:12;95785.41;;;14.35;49.58
9525;BME280;15940;48.734;9.112;2023-04-15T12:50:39;95792.72;;;14.40;48.05
9525;BME280;15940;48.734;9.112;2023-04-15T12:53:06;95799.22;;;14.37;48.81
9525;BME280;15940;48.734;9.112;2023-04-15T12:55:33;95806.09;;;14.17;48.96
9525;BME280;15940;48.734;9.112;2023-04-15T12:58:00;95806.44;;;14.00;49.04
9525;BME280;15940;48.734;9.112;2023-04-15T13:00:28;95802.69;;;13.90;49.65
9525;BME280;15940;48.734;9.112;2023-04-15T13:02:55;95816.97;;;13.70;50.08
9525;BME280;15940;48.734;9.112;2023-04-15T13:05:23;95814.34;;;13.25;49.72
9525;BME280;15940;48.734;9.112;2023-04-15T13:07:50;95813.25;;;13.01;52.88
9525;BME280;15940;48.734;9.112;2023-04-15T13:10:17;95811.56;;;12.85;51.92
9525;BME280;15940;48.734;9.112;2023-04-15T13:12:44;95823.94;;;12.67;50.37
9525;BME280;15940;48.734;9.112;2023-04-15T13:15:13;95816.63;;;12.62;51.69
9525;BME280;15940;48.734;9.112;2023-04-15T13:17:44;95821.94;;;12.68;51.10
9525;BME280;15940;48.734;9.112;2023-04-15T13:20:10;95815.78;;;12.67;50.78
9525;BME280;15940;48.734;9.112;2023-04-15T13:22:39;95832.63;;;12.79;51.41
9525;BME280;15940;48.734;9.112;2023-04-15T13:25:07;95839.16;;;12.57;50.72
9525;BME280;15940;48.734;9.112;2023-04-15T13:27:34;95841.94;;;12.70;51.59
9525;BME280;15940;48.734;9.112;2023-04-15T13:30:02;95850.47;;;12.61;52.04
9525;BME280;15940;48.734;9.112;2023-04-15T13:32:29;95854.00;;;12.37;50.12
9525;BME280;15940;48.734;9.112;2023-04-15T13:34:56;95859.75;;;12.15;49.12